Time;durP1;ratioP1;P1;durP2;ratioP2;P2;SDS_P1;SDS_P2;PMS_P1;PMS_P2;Temp;Humidity;BMP_temperature;BMP_pressure;BME280_temperature;BME280_humidity;BME280_pressure;Samples;Min_cycle;Max_cycle;Signal;HPM_P1;HPM_P2
2021/11/12 00:02:21;;;;;;;6.27;3.77;;;;;;;4.21;94.93;96759.34;5036384;28;20747;-69
2021/11/12 00:13:06;;;;;;;4.07;3.60;;;;;;;4.39;95.56;96755.22;5036377;28;20220;-69
2021/11/12 00:15:35;;;;;;;4.00;3.00;;;;;;;4.33;95.96;96750.53;5035714;28;20673;-69
2021/11/12 00:18:04;;;;;;;10.93;4.73;;;;;;;4.52;95.50;96748.88;5035562;28;20193;-69
2021/11/12 00:20:31;;;;;;;4.20;3.03;;;;;;;4.36;95.10;96760.72;5035471;28;20236;-69
2021/11/12 00:22:57;;;;;;;6.57;4.13;;;;;;;4.36;95.48;96768.53;5037435;28;20197;-69
2021/11/12 00:25:24;;;;;;;6.27;4.17;;;;;;;4.15;95.94;96759.88;5035203;28;20661;-69
2021/11/12 00:27:51;;;;;;;6.63;3.60;;;;;;;4.10;95.88;96762.03;5035883;28;20197;-70
2021/11/12 00:30:28;;;;;;;5.27;4.37;;;;;;;4.22;96.88;96761.03;5036113;28;20215;-69
2021/11/12 00:33:03;;;;;;;7.83;5.37;;;;;;;4.27;95.83;96764.09;5036394;28;20213;-69
2021/11/12 00:35:36;;;;;;;6.07;4.77;;;;;;;4.12;96.16;96764.50;5032161;28;20215;-69
2021/11/12 00:38:06;;;;;;;6.37;5.27;;;;;;;4.08;97.05;96761.31;5035891;28;20642;-69
2021/11/12 00:40:40;;;;;;;4.90;4.40;;;;;;;4.23;96.22;96767.91;5036313;28;20204;-69
2021/11/12 00:43:17;;;;;;;8.57;4.67;;;;;;;4.07;96.98;96766.66;5035749;28;20204;-69
2021/11/12 00:45:51;;;;;;;7.40;4.23;;;;;;;4.32;96.59;96759.31;5035555;28;20201;-69
2021/11/12 00:48:21;;;;;;;4.87;3.57;;;;;;;4.18;96.18;96758.81;5035817;28;20235;-69
2021/11/12 00:51:12;;;;;;;4.07;3.47;;;;;;;4.10;96.53;96762.03;5035781;28;20554;-69
2021/11/12 00:53:54;;;;;;;5.10;3.67;;;;;;;4.25;96.87;96760.75;5035591;28;20746;-69
2021/11/12 00:56:23;;;;;;;14.57;4.30;;;;;;;4.34;96.70;96765.22;5034838;28;20229;-69
2021/11/12 00:58:51;;;;;;;8.53;5.27;;;;;;;4.33;96.26;96764.41;5036457;28;20259;-70
2021/11/12 01:01:20;;;;;;;6.40;4.43;;;;;;;4.14;97.54;96758.22;5034883;28;20743;-69
2021/11/12 01:03:47;;;;;;;11.60;5.00;;;;;;;4.19;97.32;96755.22;5036039;28;20209;-69
2021/11/12 01:06:15;;;;;;;4.63;3.23;;;;;;;4.18;97.26;96756.19;5034624;28;20201;-69
2021/11/12 01:08:42;;;;;;;6.67;4.73;;;;;;;3.96;97.44;96748.44;5034903;28;20224;-69
2021/11/12 01:11:10;;;;;;;9.23;3.97;;;;;;;4.16;96.91;96756.31;5035469;28;20207;-69
2021/11/12 01:13:37;;;;;;;6.57;2.97;;;;;;;4.00;96.11;96755.91;5036096;28;20273;-69
2021/11/12 01:16:04;;;;;;;6.30;3.87;;;;;;;4.17;96.10;96749.31;5033891;28;20688;-69
2021/11/12 01:18:36;;;;;;;5.80;3.97;;;;;;;4.39;96.49;96748.25;5034856;28;20244;-69
2021/11/12 01:21:03;;;;;;;4.70;4.23;;;;;;;4.21;96.08;96743.72;5035880;28;20213;-69
2021/11/12 01:23:29;;;;;;;6.63;4.87;;;;;;;4.08;95.79;96748.28;5038740;28;20206;-69
2021/11/12 01:25:56;;;;;;;6.23;3.50;;;;;;;4.08;95.97;96743.06;5038039;28;20227;-69
2021/11/12 01:28:23;;;;;;;3.67;2.53;;;;;;;4.09;95.80;96741.31;5038378;28;20228;-69
2021/11/12 01:30:49;;;;;;;7.30;4.93;;;;;;;4.03;95.72;96745.22;5038289;28;20205;-69
2021/11/12 01:33:16;;;;;;;4.30;2.27;;;;;;;3.87;95.60;96744.81;5038121;28;20281;-69
2021/11/12 01:35:44;;;;;;;8.43;3.93;;;;;;;4.01;95.86;96741.94;5034185;28;20200;-69
2021/11/12 01:38:10;;;;;;;5.83;4.10;;;;;;;3.82;96.60;96739.16;5038755;28;20228;-69
2021/11/12 01:40:37;;;;;;;3.80;2.70;;;;;;;4.04;96.42;96739.06;5038371;28;20201;-69
2021/11/12 01:43:09;;;;;;;2.20;2.03;;;;;;;4.23;96.32;96731.38;5038411;28;20570;-70
2021/11/12 01:45:47;;;;;;;4.13;3.27;;;;;;;4.10;96.45;96728.13;5038070;28;20205;-69
2021/11/12 01:48:22;;;;;;;3.43;2.73;;;;;;;3.92;96.57;96721.81;5038096;28;20669;-69
2021/11/12 01:50:55;;;;;;;3.53;3.23;;;;;;;3.85;96.57;96719.84;5037812;28;20775;-69
2021/11/12 01:53:27;;;;;;;3.37;3.00;;;;;;;3.90;96.31;96713.28;5038047;28;20215;-69
2021/11/12 01:56:12;;;;;;;3.53;2.23;;;;;;;3.87;96.83;96704.88;5037606;28;20201;-69
2021/11/12 01:58:52;;;;;;;3.90;3.30;;;;;;;3.71;96.84;96712.31;5037554;28;20983;-69
2021/11/12 02:01:18;;;;;;;3.17;2.33;;;;;;;3.44;97.14;96713.72;5037932;28;20227;-69
2021/11/12 02:03:45;;;;;;;3.17;2.87;;;;;;;3.63;96.71;96715.53;5037524;28;20210;-69
2021/11/12 02:06:15;;;;;;;3.50;2.77;;;;;;;3.90;97.21;96718.50;5036896;28;20209;-69
2021/11/12 02:08:42;;;;;;;6.67;3.67;;;;;;;3.76;96.67;96710.97;5037714;28;20573;-70
2021/11/12 02:11:09;;;;;;;3.67;2.13;;;;;;;3.44;97.06;96709.31;5037561;28;20221;-69
2021/11/12 02:13:36;;;;;;;2.63;2.43;;;;;;;3.75;96.95;96709.31;5037564;28;20624;-69
2021/11/12 02:16:04;;;;;;;12.33;5.17;;;;;;;3.52;96.87;96700.91;5036710;28;20298;-69
2021/11/12 02:18:35;;;;;;;3.03;2.70;;;;;;;3.74;97.51;96704.22;5037393;28;20230;-69
2021/11/12 02:21:09;;;;;;;3.83;2.87;;;;;;;3.94;97.93;96693.00;5037638;28;20642;-69
2021/11/12 02:23:36;;;;;;;6.70;4.10;;;;;;;3.58;98.38;96689.97;5036732;28;20412;-69
2021/11/12 02:26:04;;;;;;;7.43;3.43;;;;;;;3.88;97.88;96689.13;5036976;28;20205;-69
2021/11/12 02:28:31;;;;;;;3.27;2.57;;;;;;;3.83;97.47;96683.47;5036460;28;20728;-69
2021/11/12 02:30:58;;;;;;;6.27;4.20;;;;;;;3.36;98.53;96677.84;5037364;28;20201;-69
2021/11/12 02:33:26;;;;;;;3.90;3.47;;;;;;;3.57;99.00;96675.31;5037336;28;20215;-69
2021/11/12 02:36:02;;;;;;;3.70;2.57;;;;;;;4.02;98.53;96667.97;5033373;28;20224;-69
2021/11/12 02:38:32;;;;;;;6.13;3.67;;;;;;;3.85;98.75;96671.13;5035566;28;20255;-69
2021/11/12 02:40:59;;;;;;;4.83;3.43;;;;;;;3.58;98.05;96677.78;5037503;28;20196;-69
2021/11/12 02:43:26;;;;;;;5.07;3.53;;;;;;;3.76;97.80;96664.06;5036668;28;20563;-69
2021/11/12 02:45:54;;;;;;;4.87;3.60;;;;;;;3.51;98.45;96662.75;5036750;28;20202;-69
2021/11/12 02:48:21;;;;;;;3.43;3.10;;;;;;;3.37;98.63;96665.66;5036509;28;20616;-69
2021/11/12 02:50:48;;;;;;;3.13;1.93;;;;;;;3.53;97.87;96666.91;5037794;28;20199;-69
2021/11/12 02:53:16;;;;;;;2.70;2.03;;;;;;;3.52;98.36;96670.44;5036161;28;20208;-69
2021/11/12 02:55:45;;;;;;;3.87;2.80;;;;;;;3.62;98.34;96662.72;5036182;28;20216;-69
2021/11/12 02:58:12;;;;;;;12.83;3.57;;;;;;;3.49;97.06;96677.66;5036758;28;20360;-69
2021/11/12 03:00:40;;;;;;;2.50;2.17;;;;;;;3.46;97.67;96670.13;5037107;28;20204;-69
2021/11/12 03:03:07;;;;;;;3.53;3.23;;;;;;;3.36;97.89;96663.97;5035811;28;20200;-69
2021/11/12 03:05:35;;;;;;;3.37;2.43;;;;;;;3.62;97.80;96660.13;5036332;28;20208;-69
2021/11/12 03:08:02;;;;;;;2.87;2.53;;;;;;;3.35;97.04;96672.78;5036662;28;20207;-69
2021/11/12 03:10:29;;;;;;;2.30;2.10;;;;;;;3.41;97.31;96672.25;5036820;28;20575;-69
2021/11/12 03:12:58;;;;;;;8.80;3.20;;;;;;;3.49;97.53;96675.06;5036522;28;20196;-69
2021/11/12 03:15:25;;;;;;;2.27;2.10;;;;;;;3.35;96.90;96670.16;5036160;28;20198;-69
2021/11/12 03:17:55;;;;;;;8.17;2.93;;;;;;;3.73;96.35;96669.53;5036144;28;20230;-69
2021/11/12 03:20:24;;;;;;;5.13;3.07;;;;;;;3.80;96.12;96665.47;5032054;28;20227;-69
2021/11/12 03:22:54;;;;;;;3.23;2.47;;;;;;;3.61;96.71;96663.66;5036668;28;20228;-69
2021/11/12 03:25:28;;;;;;;5.40;4.00;;;;;;;3.32;97.17;96662.59;5036126;28;20212;-69
2021/11/12 03:28:07;;;;;;;2.83;2.43;;;;;;;3.55;96.66;96671.97;5036011;28;20715;-69
2021/11/12 04:04:05;;;;;;;5.90;3.43;;;;;;;3.34;97.16;96671.13;5029316;28;20580;-69
2021/11/12 04:06:38;;;;;;;4.70;2.60;;;;;;;3.48;96.85;96673.44;5034074;28;20230;-69
2021/11/12 04:49:16;;;;;;;4.97;3.00;;;;;;;3.36;97.00;96658.78;5034920;28;20265;-69
2021/11/12 05:34:51;;;;;;;2.20;2.00;;;;;;;3.31;97.19;96666.13;5021743;28;20203;-69
2021/11/12 05:43:37;;;;;;;4.73;2.80;;;;;;;3.68;96.84;96660.44;5053674;28;20671;-69
2021/11/12 05:46:18;;;;;;;5.40;3.43;;;;;;;3.60;97.27;96662.00;5052642;28;20713;-69
2021/11/12 05:51:41;;;;;;;13.17;2.53;;;;;;;3.60;96.91;96662.00;5041820;28;20331;-69
2021/11/12 05:56:55;;;;;;;4.73;3.50;;;;;;;3.34;97.70;96666.72;5052464;28;20211;-69
2021/11/12 05:59:24;;;;;;;5.13;3.57;;;;;;;2.88;99.42;96662.69;5052706;28;20225;-69
2021/11/12 06:01:52;;;;;;;6.17;4.13;;;;;;;3.21;99.30;96666.03;5052990;28;20205;-69
2021/11/12 06:04:19;;;;;;;4.90;2.93;;;;;;;3.39;98.60;96668.97;5052902;28;20702;-69
2021/11/12 06:06:46;;;;;;;4.97;2.63;;;;;;;3.49;97.89;96670.69;5051874;28;20751;-69
2021/11/12 06:09:13;;;;;;;7.43;4.10;;;;;;;3.41;97.98;96667.06;5052813;28;20908;-69
2021/11/12 06:11:39;;;;;;;3.63;2.60;;;;;;;3.11;98.93;96672.94;5052789;28;20252;-69
2021/11/12 06:14:06;;;;;;;3.87;2.53;;;;;;;3.31;98.11;96666.97;5052802;28;20296;-69
2021/11/12 06:16:34;;;;;;;3.77;3.23;;;;;;;3.51;98.36;96670.56;5052076;28;20507;-69
2021/11/12 06:19:01;;;;;;;4.43;2.53;;;;;;;3.50;98.40;96674.13;5052415;28;20226;-69
2021/11/12 06:21:29;;;;;;;6.60;3.70;;;;;;;3.20;98.37;96674.81;5052501;28;20208;-70
2021/11/12 06:23:56;;;;;;;4.93;3.83;;;;;;;3.29;98.46;96668.88;5052613;28;20207;-69
2021/11/12 06:26:23;;;;;;;16.63;7.18;;;;;;;3.01;100.00;96677.19;5051087;28;20462;-70
2021/11/12 06:28:50;;;;;;;8.73;3.30;;;;;;;3.47;98.67;96671.78;5053016;28;20219;-71
2021/11/12 06:31:19;;;;;;;5.60;4.00;;;;;;;3.36;98.23;96671.81;5052886;28;20221;-71
2021/11/12 06:33:48;;;;;;;9.67;2.83;;;;;;;3.55;97.69;96667.59;5052902;28;20975;-71
2021/11/12 06:36:15;;;;;;;7.67;5.43;;;;;;;3.54;97.00;96667.72;5050364;28;20211;-71
2021/11/12 06:38:41;;;;;;;11.47;3.80;;;;;;;3.59;97.16;96668.16;5052217;28;20223;-71
2021/11/12 06:41:10;;;;;;;5.80;3.30;;;;;;;3.42;97.29;96668.72;5052218;28;20205;-71
2021/11/12 06:43:45;;;;;;;3.20;2.90;;;;;;;3.39;97.61;96671.56;5053053;28;20592;-71
2021/11/12 06:49:22;;;;;;;13.03;4.10;;;;;;;3.79;96.95;96669.03;5033930;28;20263;-71
2021/11/12 06:51:48;;;;;;;9.00;5.00;;;;;;;3.35;98.02;96657.16;5052658;28;20285;-71
2021/11/12 06:54:15;;;;;;;3.47;2.00;;;;;;;3.55;97.17;96664.16;5042131;28;20205;-71
2021/11/12 06:56:41;;;;;;;7.50;3.83;;;;;;;3.50;97.42;96663.69;5038842;28;20578;-72
2021/11/12 06:59:08;;;;;;;10.60;3.50;;;;;;;3.55;97.63;96657.16;5038917;28;20230;-72
2021/11/12 07:01:34;;;;;;;7.80;3.67;;;;;;;3.59;97.46;96661.19;5039305;28;20204;-73
2021/11/12 07:04:03;;;;;;;6.57;3.40;;;;;;;3.92;97.19;96654.03;5039256;28;20673;-72
2021/11/12 07:06:29;;;;;;;6.57;3.03;;;;;;;3.67;96.92;96659.59;5038295;28;20211;-72
2021/11/12 07:08:57;;;;;;;6.10;3.67;;;;;;;3.62;96.18;96661.75;5039317;28;20220;-72
2021/11/12 07:11:23;;;;;;;7.57;3.30;;;;;;;3.54;96.56;96665.09;5039046;28;20219;-72
2021/11/12 07:13:50;;;;;;;2.83;2.27;;;;;;;3.66;96.40;96663.16;5038791;28;20200;-72
2021/11/12 07:16:17;;;;;;;3.13;2.90;;;;;;;3.51;97.05;96670.56;5038193;28;20477;-72
2021/11/12 07:18:44;;;;;;;7.80;4.33;;;;;;;3.63;96.35;96668.63;5038872;28;20311;-72
2021/11/12 07:21:12;;;;;;;10.80;3.37;;;;;;;3.88;95.90;96660.47;5039209;28;20237;-72
2021/11/12 07:23:39;;;;;;;8.43;2.83;;;;;;;3.55;95.28;96664.16;5038661;28;20252;-72
2021/11/12 07:26:05;;;;;;;3.27;2.03;;;;;;;3.60;95.80;96655.00;5037991;28;20949;-72
2021/11/12 07:28:32;;;;;;;4.83;2.97;;;;;;;3.83;95.57;96661.78;5038741;28;20231;-71
2021/11/12 07:31:00;;;;;;;4.27;2.97;;;;;;;3.70;95.13;96674.16;5038366;28;20204;-72
2021/11/12 07:33:26;;;;;;;4.57;3.23;;;;;;;3.68;95.16;96671.69;5038557;28;20707;-72
2021/11/12 07:35:55;;;;;;;4.93;3.07;;;;;;;3.81;94.67;96656.69;5035541;28;20309;-72
2021/11/12 07:38:25;;;;;;;5.80;4.10;;;;;;;4.01;95.31;96663.72;5038467;28;20227;-71
2021/11/12 07:41:14;;;;;;;5.70;3.83;;;;;;;3.82;94.66;96668.78;5038460;28;20230;-73
2021/11/12 07:46:35;;;;;;;16.38;6.75;;;;;;;3.81;96.87;96656.69;5036716;28;20451;-71
2021/11/12 07:49:04;;;;;;;7.50;4.97;;;;;;;3.79;95.34;96660.38;5038292;28;20314;-72
2021/11/12 07:51:31;;;;;;;5.50;2.87;;;;;;;3.86;95.21;96649.31;5038140;28;20676;-71
2021/11/12 07:53:58;;;;;;;7.83;3.87;;;;;;;4.06;94.94;96645.91;5037935;28;20229;-72
2021/11/12 07:56:26;;;;;;;5.40;2.73;;;;;;;4.19;95.03;96645.69;5037200;28;20215;-71
2021/11/12 07:58:53;;;;;;;4.10;2.73;;;;;;;4.03;93.70;96640.13;5037992;28;20229;-71
2021/11/12 08:01:20;;;;;;;6.83;3.57;;;;;;;3.89;93.78;96632.59;5037220;28;20212;-72
2021/11/12 08:03:50;;;;;;;4.17;2.67;;;;;;;3.99;94.67;96631.72;5037855;28;20208;-71
2021/11/12 08:06:17;;;;;;;2.67;2.47;;;;;;;4.01;94.46;96634.19;5036084;28;20205;-72
2021/11/12 08:08:49;;;;;;;4.57;3.40;;;;;;;4.02;93.90;96633.25;5038168;28;20228;-71
2021/11/12 08:11:20;;;;;;;7.10;3.77;;;;;;;4.25;94.77;96625.13;5037735;28;20225;-70
2021/11/12 08:13:50;;;;;;;6.20;3.33;;;;;;;3.96;94.82;96636.34;5037248;28;20227;-72
2021/11/12 08:16:30;;;;;;;3.50;3.03;;;;;;;3.93;93.63;96624.38;5036878;28;20615;-70
2021/11/12 08:18:59;;;;;;;3.70;3.17;;;;;;;4.10;93.50;96629.03;5038774;28;20289;-70
2021/11/12 08:21:32;;;;;;;14.90;3.10;;;;;;;4.19;93.36;96623.06;5037344;28;20215;-71
2021/11/12 08:24:07;;;;;;;4.00;3.17;;;;;;;4.01;94.44;96624.59;5037426;28;20615;-70
2021/11/12 08:26:43;;;;;;;5.23;3.40;;;;;;;4.40;94.22;96613.41;5037110;28;20203;-71
2021/11/12 08:29:26;;;;;;;8.13;4.17;;;;;;;4.16;93.99;96617.25;5037613;28;20377;-71
2021/11/12 08:37:40;;;;;;;6.70;3.67;;;;;;;3.86;94.67;96612.84;5022327;28;20204;-71
2021/11/12 08:40:14;;;;;;;4.67;2.70;;;;;;;3.95;94.53;96609.47;5037303;28;20704;-70
2021/11/12 08:42:46;;;;;;;6.43;4.07;;;;;;;4.06;94.93;96619.84;5037318;28;20208;-70
2021/11/12 08:45:16;;;;;;;5.20;3.97;;;;;;;3.99;94.41;96620.47;5037279;28;20208;-71
2021/11/12 08:47:45;;;;;;;7.73;3.80;;;;;;;4.42;93.20;96620.16;5036858;28;20734;-71
2021/11/12 08:50:16;;;;;;;5.13;4.03;;;;;;;4.24;92.77;96613.88;5036375;28;20214;-71
2021/11/12 08:52:44;;;;;;;3.97;3.23;;;;;;;4.03;92.90;96607.03;5036802;28;20903;-71
2021/11/12 08:55:11;;;;;;;2.27;2.00;;;;;;;4.42;92.70;96608.91;5036249;28;20631;-70
2021/11/12 08:57:38;;;;;;;9.13;3.70;;;;;;;4.37;92.19;96603.25;5035892;28;20677;-70
2021/11/12 09:00:10;;;;;;;6.47;3.47;;;;;;;4.64;92.51;96606.09;5036740;28;20713;-70
2021/11/12 09:02:36;;;;;;;8.17;5.27;;;;;;;4.55;92.61;96606.88;5036729;28;20212;-70
2021/11/12 09:05:03;;;;;;;5.57;4.17;;;;;;;4.70;92.33;96615.97;5036149;28;20699;-70
2021/11/12 09:07:31;;;;;;;24.37;5.60;;;;;;;4.82;91.96;96620.16;5035517;28;20356;-70
2021/11/12 09:09:57;;;;;;;8.00;4.80;;;;;;;4.70;91.66;96621.19;5036200;28;20328;-70
2021/11/12 09:12:25;;;;;;;4.23;2.87;;;;;;;4.80;91.89;96619.47;5036363;28;20231;-70
2021/11/12 09:14:55;;;;;;;8.10;3.83;;;;;;;4.81;91.63;96628.94;5036928;28;20205;-70
2021/11/12 09:17:27;;;;;;;7.80;3.57;;;;;;;4.87;91.78;96619.63;5035442;28;20707;-70
2021/11/12 09:19:57;;;;;;;8.03;5.13;;;;;;;4.64;92.22;96619.13;5036660;28;20224;-70
2021/11/12 09:22:26;;;;;;;9.07;5.17;;;;;;;4.80;92.33;96616.84;5036699;28;20200;-70
2021/11/12 09:24:53;;;;;;;6.33;4.23;;;;;;;4.81;91.54;96613.28;5036671;28;20204;-70
2021/11/12 09:27:21;;;;;;;5.93;3.67;;;;;;;4.87;90.50;96598.75;5035568;28;20226;-70
2021/11/12 09:29:50;;;;;;;7.57;3.17;;;;;;;4.93;90.42;96602.59;5037783;28;20224;-70
2021/11/12 09:32:17;;;;;;;6.33;2.83;;;;;;;4.73;91.28;96597.47;5036729;28;20654;-70
2021/11/12 09:34:46;;;;;;;6.27;4.13;;;;;;;5.19;90.99;96585.47;5036626;28;20299;-70
2021/11/12 09:37:19;;;;;;;4.27;2.47;;;;;;;5.25;90.45;96582.31;5032702;28;20569;-70
2021/11/12 09:39:47;;;;;;;7.87;3.80;;;;;;;5.18;89.73;96583.81;5037293;28;20224;-70
2021/11/12 09:42:14;;;;;;;7.13;4.37;;;;;;;4.82;91.42;96594.06;5036410;28;20224;-70
2021/11/12 09:44:42;;;;;;;6.33;3.70;;;;;;;5.18;90.63;96586.41;5036538;28;20236;-70
2021/11/12 09:47:09;;;;;;;9.03;5.70;;;;;;;5.02;91.39;96588.75;5035829;28;20211;-70
2021/11/12 09:49:37;;;;;;;7.73;4.67;;;;;;;4.99;91.15;96589.84;5036700;28;20605;-70
2021/11/12 09:52:07;;;;;;;8.63;4.03;;;;;;;5.46;90.65;96582.03;5036456;28;20212;-70
2021/11/12 09:54:33;;;;;;;3.30;2.50;;;;;;;4.98;91.73;96595.19;5036119;28;20278;-70
2021/11/12 09:57:00;;;;;;;8.80;4.73;;;;;;;5.16;90.84;96580.50;5036020;28;20200;-70
2021/11/12 09:59:32;;;;;;;9.30;4.33;;;;;;;4.99;92.22;96587.22;5036513;28;20228;-70
2021/11/12 10:01:59;;;;;;;4.67;3.80;;;;;;;4.67;92.50;96584.94;5036201;28;20242;-70
2021/11/12 10:04:26;;;;;;;3.10;2.80;;;;;;;4.69;94.34;96583.03;5036518;28;20198;-70
2021/11/12 10:06:57;;;;;;;10.83;3.93;;;;;;;5.07;92.30;96583.94;5035862;28;20203;-70
2021/11/12 10:09:26;;;;;;;4.07;3.43;;;;;;;5.28;92.94;96577.63;5035364;28;20229;-70
2021/11/12 10:11:55;;;;;;;13.47;4.53;;;;;;;5.37;92.22;96576.78;5035984;28;20212;-70
2021/11/12 10:14:30;;;;;;;5.40;3.37;;;;;;;5.52;91.70;96571.03;5036013;28;20232;-71
2021/11/12 10:16:58;;;;;;;8.97;5.10;;;;;;;5.18;92.75;96571.59;5035643;28;20196;-70
2021/11/12 10:19:25;;;;;;;17.50;8.53;;;;;;;5.05;93.59;96570.19;5035822;28;20220;-70
2021/11/12 10:21:54;;;;;;;7.50;5.57;;;;;;;5.41;92.94;96565.13;5036009;28;20201;-70
2021/11/12 10:24:25;;;;;;;9.80;5.50;;;;;;;5.49;92.12;96562.66;5036422;28;20204;-70
2021/11/12 10:26:56;;;;;;;7.93;4.60;;;;;;;5.29;91.51;96555.75;5035037;28;21061;-70
2021/11/12 10:29:27;;;;;;;9.80;5.13;;;;;;;5.04;92.55;96553.69;5038431;28;20282;-70
2021/11/12 10:31:57;;;;;;;14.20;5.50;;;;;;;5.13;92.59;96546.81;5039979;28;20216;-70
2021/11/12 10:34:27;;;;;;;4.10;2.90;;;;;;;4.75;94.24;96549.38;5039280;28;20227;-70
2021/11/12 10:36:57;;;;;;;7.80;4.00;;;;;;;4.97;94.76;96536.09;5036755;28;20194;-70
2021/11/12 10:39:32;;;;;;;11.07;5.50;;;;;;;5.15;93.61;96548.31;5039923;28;20253;-70
2021/11/12 10:42:02;;;;;;;11.67;5.27;;;;;;;4.82;95.91;96547.88;5039220;28;20263;-70
2021/11/12 10:44:32;;;;;;;7.73;3.13;;;;;;;4.84;94.77;96528.50;5039849;28;20207;-70
2021/11/12 10:47:02;;;;;;;8.13;4.83;;;;;;;5.22;94.51;96525.09;5039582;28;21186;-70
2021/11/12 10:49:31;;;;;;;9.43;4.90;;;;;;;5.09;95.39;96525.38;5038799;28;20221;-70
2021/11/12 10:52:00;;;;;;;13.73;5.20;;;;;;;5.37;94.95;96521.09;5039253;28;20918;-70
2021/11/12 10:54:46;;;;;;;11.17;4.80;;;;;;;5.58;93.69;96512.16;5039786;28;20224;-70
2021/11/12 10:57:14;;;;;;;8.37;5.30;;;;;;;5.35;93.94;96505.56;5038873;28;20216;-70
2021/11/12 11:00:02;;;;;;;11.67;6.87;;;;;;;5.63;92.15;96504.72;5039724;28;20217;-70
2021/11/12 11:02:30;;;;;;;10.40;4.27;;;;;;;5.44;91.97;96504.75;5038995;28;20201;-70
2021/11/12 11:05:03;;;;;;;9.70;5.00;;;;;;;5.72;92.85;96503.88;5038319;28;20219;-71
2021/11/12 11:07:29;;;;;;;4.73;3.13;;;;;;;5.46;93.02;96508.88;5037623;28;20205;-71
2021/11/12 11:09:57;;;;;;;4.77;3.90;;;;;;;5.75;92.65;96506.19;5038583;28;20592;-71
2021/11/12 11:12:34;;;;;;;4.57;3.87;;;;;;;5.94;91.95;96508.78;5038401;28;20209;-70
2021/11/12 11:15:30;;;;;;;11.40;5.43;;;;;;;6.03;91.84;96508.75;5038449;28;20256;-70
2021/11/12 11:18:28;;;;;;;7.87;4.37;;;;;;;6.00;93.11;96495.16;5038678;28;20225;-70
2021/11/12 11:21:03;;;;;;;7.03;3.93;;;;;;;5.44;95.42;96486.44;5038336;28;20691;-70
2021/11/12 11:23:31;;;;;;;11.00;4.27;;;;;;;5.65;93.85;96489.69;5038402;28;20227;-70
2021/11/12 11:26:04;;;;;;;8.47;5.80;;;;;;;5.51;94.08;96480.53;5037704;28;20190;-70
2021/11/12 11:28:35;;;;;;;6.87;3.87;;;;;;;5.40;95.29;96485.09;5038216;28;20220;-70
2021/11/12 11:31:03;;;;;;;7.73;3.73;;;;;;;5.58;94.69;96486.81;5038314;28;20197;-70
2021/11/12 11:33:30;;;;;;;7.83;4.43;;;;;;;5.56;92.80;96493.16;5038309;28;20229;-71
2021/11/12 11:35:57;;;;;;;9.77;5.30;;;;;;;5.45;93.54;96481.06;5034965;28;20232;-71
2021/11/12 11:38:30;;;;;;;6.67;4.33;;;;;;;5.71;94.02;96481.31;5037914;28;20642;-71
2021/11/12 11:40:57;;;;;;;8.07;4.40;;;;;;;5.49;94.55;96482.44;5038348;28;20944;-71
2021/11/12 11:43:24;;;;;;;11.97;4.87;;;;;;;5.27;94.96;96481.94;5038462;28;20262;-71
2021/11/12 11:45:55;;;;;;;10.67;4.93;;;;;;;5.33;95.75;96481.38;5038100;28;20926;-71
2021/11/12 11:48:22;;;;;;;7.43;4.70;;;;;;;5.52;95.29;96476.94;5037822;28;20225;-71
2021/11/12 11:50:55;;;;;;;5.33;4.13;;;;;;;5.91;94.68;96473.28;5038512;28;20670;-71
2021/11/12 11:53:29;;;;;;;23.33;7.67;;;;;;;5.97;93.92;96470.09;5038550;28;20228;-71
2021/11/12 11:56:12;;;;;;;14.00;6.23;;;;;;;5.94;94.10;96461.72;5037827;28;20201;-71
2021/11/12 11:58:42;;;;;;;9.57;4.13;;;;;;;5.77;96.28;96460.66;5037688;28;20266;-71
2021/11/12 12:01:35;;;;;;;9.17;5.47;;;;;;;6.01;93.93;96457.53;5038957;28;20723;-71
2021/11/12 12:04:36;;;;;;;7.83;4.53;;;;;;;6.26;93.92;96458.53;5038192;28;20208;-71
2021/11/12 12:07:17;;;;;;;11.97;4.93;;;;;;;6.29;92.74;96462.66;5037122;28;20197;-71
2021/11/12 12:09:46;;;;;;;10.23;5.00;;;;;;;5.97;94.30;96453.56;5037859;28;20776;-71
2021/11/12 12:12:13;;;;;;;4.87;3.80;;;;;;;5.43;96.45;96448.22;5037828;28;20251;-71
2021/11/12 12:14:40;;;;;;;5.77;4.07;;;;;;;5.84;95.01;96440.84;5037733;28;20228;-71
2021/11/12 12:17:11;;;;;;;9.10;5.77;;;;;;;5.90;93.84;96442.88;5036479;28;20202;-71
2021/11/12 12:19:43;;;;;;;7.33;4.67;;;;;;;6.03;93.95;96437.31;5037617;28;20307;-71
2021/11/12 12:31:06;;;;;;;6.87;2.93;;;;;;;5.91;96.68;96436.69;5037773;28;21184;-71
2021/11/12 12:34:04;;;;;;;11.93;3.73;;;;;;;5.93;96.23;96445.22;5037566;28;20781;-71
2021/11/12 13:22:41;;;;;;;5.07;3.27;;;;;;;6.27;96.14;96379.06;5036549;28;20208;-71
2021/11/12 13:25:11;;;;;;;5.93;3.63;;;;;;;6.34;96.43;96377.50;5036810;28;20207;-71
2021/11/12 13:27:38;;;;;;;6.17;3.80;;;;;;;6.33;96.05;96370.63;5034968;28;20654;-71
2021/11/12 13:30:07;;;;;;;3.90;2.90;;;;;;;6.16;96.89;96379.28;5036418;28;20828;-71
2021/11/12 13:32:39;;;;;;;6.97;3.30;;;;;;;6.26;97.30;96363.50;5036445;28;20201;-71
2021/11/12 13:35:07;;;;;;;3.03;2.73;;;;;;;6.16;96.88;96373.22;5036108;28;20229;-71
2021/11/12 13:37:33;;;;;;;7.83;3.70;;;;;;;6.08;94.90;96381.81;5034895;28;20201;-71
2021/11/12 13:40:11;;;;;;;7.10;3.17;;;;;;;6.41;95.05;96373.31;5036142;28;20657;-71
2021/11/12 13:42:43;;;;;;;5.60;3.90;;;;;;;6.36;94.92;96365.09;5036109;28;20238;-71
2021/11/12 13:45:19;;;;;;;4.80;3.97;;;;;;;6.42;95.58;96359.25;5034912;28;20677;-71
2021/11/12 13:47:46;;;;;;;6.30;4.07;;;;;;;6.21;95.68;96360.50;5035067;28;20208;-71
2021/11/12 13:50:17;;;;;;;9.43;4.40;;;;;;;6.37;94.64;96358.88;5035672;28;20209;-71
2021/11/12 13:52:44;;;;;;;11.77;5.67;;;;;;;6.37;94.38;96351.03;5035604;28;20616;-71
2021/11/12 13:55:15;;;;;;;10.70;5.17;;;;;;;6.65;93.85;96353.41;5035958;28;20361;-71
2021/11/12 13:57:54;;;;;;;5.77;3.53;;;;;;;6.77;93.98;96359.25;5034987;28;20200;-71
2021/11/12 14:00:22;;;;;;;6.40;3.80;;;;;;;6.52;94.18;96356.56;5035503;28;20200;-71
2021/11/12 14:02:55;;;;;;;5.23;4.00;;;;;;;6.58;94.15;96354.19;5035734;28;20197;-71
2021/11/12 14:05:23;;;;;;;7.13;3.67;;;;;;;6.33;94.88;96354.91;5039575;28;20201;-71
2021/11/12 14:08:00;;;;;;;7.87;4.40;;;;;;;6.39;94.99;96354.34;5039403;28;20200;-71
2021/11/12 14:10:38;;;;;;;3.80;2.77;;;;;;;6.52;94.74;96354.78;5039884;28;20205;-71
2021/11/12 14:13:07;;;;;;;10.33;3.87;;;;;;;6.41;95.39;96352.38;5039345;28;20204;-71
2021/11/12 14:15:38;;;;;;;10.07;4.73;;;;;;;6.32;94.91;96349.84;5038226;28;20240;-71
2021/11/12 14:18:19;;;;;;;2.97;2.50;;;;;;;6.42;95.60;96348.78;5040062;28;20208;-71
2021/11/12 14:20:56;;;;;;;4.20;2.90;;;;;;;6.58;95.06;96348.97;5039512;28;20764;-71
2021/11/12 14:23:25;;;;;;;5.07;3.13;;;;;;;6.30;95.36;96339.53;5039066;28;20212;-71
2021/11/12 14:26:18;;;;;;;5.83;5.10;;;;;;;6.58;95.06;96348.97;5039153;28;20205;-71
2021/11/12 14:28:50;;;;;;;7.87;4.10;;;;;;;6.05;96.24;96353.31;5039997;28;20563;-71
2021/11/12 14:31:49;;;;;;;6.80;4.70;;;;;;;6.26;97.59;96337.34;5038816;28;20413;-71
2021/11/12 14:37:09;;;;;;;9.83;4.07;;;;;;;6.13;96.93;96332.47;5025557;28;20201;-69
2021/11/12 14:39:50;;;;;;;8.30;5.70;;;;;;;6.12;97.31;96333.47;5039022;28;20221;-69
2021/11/12 14:42:45;;;;;;;9.43;3.70;;;;;;;6.19;98.21;96331.06;5038861;28;20224;-69
2021/11/12 14:45:21;;;;;;;6.77;4.53;;;;;;;6.00;97.98;96331.19;5039022;28;20201;-69
2021/11/12 14:48:00;;;;;;;8.80;3.83;;;;;;;5.94;97.73;96326.53;5037998;28;20696;-69
2021/11/12 14:50:43;;;;;;;8.33;3.97;;;;;;;6.26;97.67;96319.88;5038558;28;20540;-69
2021/11/12 14:53:19;;;;;;;5.27;3.93;;;;;;;6.38;97.58;96318.66;5039117;28;20524;-69
2021/11/12 14:55:51;;;;;;;4.57;2.80;;;;;;;6.18;97.93;96327.63;5037623;28;20217;-69
2021/11/12 14:58:20;;;;;;;9.37;2.97;;;;;;;6.28;98.56;96324.94;5038921;28;20397;-69
2021/11/12 15:00:48;;;;;;;13.93;4.20;;;;;;;6.26;98.11;96326.88;5038505;28;20255;-69
2021/11/12 15:03:14;;;;;;;15.20;4.50;;;;;;;6.13;98.43;96332.47;5038349;28;20217;-69
2021/11/12 15:05:41;;;;;;;8.53;3.73;;;;;;;6.05;97.80;96324.53;5038473;28;20213;-69
2021/11/12 15:08:12;;;;;;;9.13;3.87;;;;;;;5.96;98.05;96326.38;5038054;28;20474;-69
2021/11/12 15:10:40;;;;;;;3.00;2.47;;;;;;;6.11;97.76;96334.41;5038582;28;20201;-69
2021/11/12 15:13:07;;;;;;;8.07;4.53;;;;;;;6.13;97.29;96331.66;5038742;28;20205;-69
2021/11/12 15:15:35;;;;;;;6.87;3.20;;;;;;;6.15;98.56;96314.03;5037252;28;20296;-70
2021/11/12 15:18:05;;;;;;;7.03;3.73;;;;;;;5.89;98.91;96314.88;5038779;28;20216;-69
2021/11/12 15:20:33;;;;;;;8.63;4.17;;;;;;;6.03;98.48;96317.00;5036375;28;20204;-69
2021/11/12 15:25:45;;;;;;;5.70;3.10;;;;;;;5.92;98.44;96307.56;5035905;28;20280;-69
2021/11/12 15:28:19;;;;;;;7.13;4.33;;;;;;;5.87;98.39;96314.19;5038704;28;20228;-69